Erie, CO

1:14 PM MDT on September 22, 2017 (GMT -0600)
Erie Municipal Airport

Weather History for KEIK - July, 2013

Change the Weather History Date:

Friday, July 26, 2013

  Actual Average (KBJC) Record (KBJC)
Temperature  
Mean Temperature 70 °F -  
Max Temperature 86 °F 85 °F 95 °F (2010)
Min Temperature 55 °F 61 °F 51 °F (1991)
Cooling Degree Days 6    
Growing Degree Days 20 (Base 50)    
Moisture  
Dew Point 49 °F    
Average Humidity 55    
Maximum Humidity 92    
Minimum Humidity 17    
Precipitation  
Precipitation 0.00 in - - ()
Sea Level Pressure  
Sea Level Pressure 30.27 in    
Wind  
Wind Speed 3 mph (SSW)    
Max Wind Speed 17 mph    
Max Gust Speed 26 mph    
Visibility 10 miles    
Events      
Averages and records for this station are not official NWS values.
T = Trace of Precipitation, MM = Missing Value Source: NWS Daily Summary

Daily Weather History Graph

Daily Weather History Graph

Search for Another Location

Airport or City:

Trip Planner

Search our weather history database for the weather conditions in past years. The results will help you decide how hot, cold, wet, or windy it might be!

Date:

Astronomy

Jul. 26, 2013 Rise Set
Actual Time 5:53 AM MDT 8:19 PM MDT
Civil Twilight 5:22 AM MDT 8:50 PM MDT
Nautical Twilight 4:44 AM MDT 9:28 PM MDT
Astronomical Twilight 4:01 AM MDT 10:10 PM MDT
Moon 10:35 PM MDT (7/26) 10:32 AM MDT (7/26)
Length of Visible Light 15h 27m
Length of Day
14h 26m
Waning Gibbous, 79% of the Moon is Illuminated
Jul 26
Waning Gibbous
Jul 29
Last Quarter
Aug 6
New
Aug 14
First Quarter
Aug 20
Full

Hourly Weather History & Observations

Time (MDT) Temp. Dew Point Humidity Pressure Visibility Wind Dir Wind Speed Gust Speed Precip Events Conditions
12:15 AM 63.0 °F 56.3 °F 79% 30.28 in 10.0 mi SSW 3.5 mph - N/A   Scattered Clouds
12:35 AM 62.8 °F 56.7 °F 80% 30.28 in 10.0 mi Calm Calm - N/A   Clear
12:55 AM 62.6 °F 57.2 °F 82% 30.28 in 10.0 mi Calm Calm - N/A   Scattered Clouds
1:15 AM 63.7 °F 56.7 °F 78% 30.29 in 10.0 mi Calm Calm - N/A   Scattered Clouds
1:35 AM 63.7 °F 56.8 °F 78% 30.29 in 10.0 mi Calm Calm - N/A   Scattered Clouds
1:55 AM 62.4 °F 57.4 °F 84% 30.30 in 10.0 mi NE 6.9 mph - N/A   Mostly Cloudy
2:15 AM 63.7 °F 55.8 °F 75% 30.29 in 10.0 mi Calm Calm - N/A   Mostly Cloudy
2:35 AM 63.5 °F 55.6 °F 75% 30.29 in 10.0 mi Calm Calm - N/A   Scattered Clouds
2:55 AM 60.1 °F 55.9 °F 86% 30.28 in 10.0 mi Calm Calm - N/A   Clear
3:15 AM 58.8 °F 55.9 °F 90% 30.28 in 10.0 mi Calm Calm - N/A   Clear
3:35 AM 58.5 °F 55.6 °F 90% 30.29 in 10.0 mi West 3.5 mph - N/A   Clear
3:55 AM 58.6 °F 55.6 °F 90% 30.29 in 10.0 mi Calm Calm - N/A   Clear
4:15 AM 58.8 °F 55.8 °F 90% 30.28 in 10.0 mi Calm Calm - N/A   Clear
4:35 AM 58.1 °F 55.2 °F 90% 30.28 in 10.0 mi Calm Calm - N/A   Clear
4:55 AM 57.4 °F 54.5 °F 90% 30.28 in 10.0 mi SSW 3.5 mph - N/A   Clear
5:15 AM 56.3 °F 54.0 °F 92% 30.28 in 10.0 mi SSW 5.8 mph - N/A   Clear
5:35 AM 56.3 °F 53.8 °F 91% 30.28 in 10.0 mi SSW 3.5 mph - N/A   Clear
5:55 AM 56.7 °F 53.4 °F 89% 30.28 in 10.0 mi Calm Calm - N/A   Clear
6:15 AM 56.3 °F 52.5 °F 87% 30.30 in 10.0 mi Calm Calm - N/A   Clear
6:35 AM 55.0 °F 52.7 °F 92% 30.31 in 10.0 mi Calm Calm - N/A   Clear
6:55 AM 57.6 °F 55.2 °F 92% 30.31 in 10.0 mi Calm Calm - N/A   Clear
7:15 AM 59.4 °F 55.9 °F 88% 30.31 in 10.0 mi Calm Calm - N/A   Clear
7:35 AM 61.7 °F 55.2 °F 79% 30.31 in 10.0 mi Calm Calm - N/A   Clear
7:55 AM 63.9 °F 55.2 °F 73% 30.32 in 10.0 mi Calm Calm - N/A   Clear
8:15 AM 65.3 °F 54.7 °F 68% 30.32 in 10.0 mi Calm Calm - N/A   Clear
8:35 AM 66.4 °F 55.2 °F 67% 30.33 in 10.0 mi Calm Calm - N/A   Clear
8:55 AM 67.8 °F 55.6 °F 65% 30.33 in 10.0 mi North 3.5 mph - N/A   Clear
9:15 AM 69.4 °F 54.7 °F 59% 30.32 in 10.0 mi Calm Calm - N/A   Clear
9:35 AM 70.9 °F 53.4 °F 54% 30.32 in 10.0 mi Calm Calm - N/A   Clear
9:55 AM 72.0 °F 52.0 °F 49% 30.32 in 10.0 mi Calm Calm - N/A   Clear
10:15 AM 73.0 °F 50.2 °F 44% 30.32 in 10.0 mi Calm Calm - N/A   Clear
10:35 AM 74.3 °F 50.9 °F 44% 30.32 in 10.0 mi Calm Calm - N/A   Clear
10:55 AM 75.9 °F 50.5 °F 41% 30.32 in 10.0 mi SSE 3.5 mph - N/A   Clear
11:15 AM 78.3 °F 50.2 °F 37% 30.32 in 10.0 mi Calm Calm - N/A   Clear
11:35 AM 79.0 °F 49.6 °F 36% 30.32 in 10.0 mi ESE 3.5 mph - N/A   Clear
11:55 AM 79.9 °F 48.4 °F 33% 30.32 in 10.0 mi Calm Calm - N/A   Clear
12:15 PM 80.6 °F 48.0 °F 32% 30.31 in 10.0 mi East 6.9 mph - N/A   Clear
12:35 PM 82.0 °F 47.7 °F 30% 30.30 in 10.0 mi SE 5.8 mph - N/A   Clear
12:55 PM 82.9 °F 46.6 °F 28% 30.29 in 10.0 mi SSE 8.1 mph - N/A   Clear
1:15 PM 83.8 °F 45.1 °F 26% 30.28 in 10.0 mi Calm Calm - N/A   Clear
1:35 PM 82.8 °F 44.6 °F 26% 30.28 in 10.0 mi Calm Calm - N/A   Scattered Clouds
1:55 PM 83.3 °F 43.9 °F 25% 30.28 in 10.0 mi WSW 4.6 mph - N/A   Clear
2:15 PM 85.1 °F 43.5 °F 23% 30.27 in 10.0 mi SW 8.1 mph - N/A   Clear
2:35 PM 82.9 °F 43.7 °F 25% 30.27 in 10.0 mi WSW 6.9 mph - N/A   Clear
2:55 PM 81.1 °F 43.9 °F 27% 30.25 in 10.0 mi SW 6.9 mph - N/A   Clear
3:15 PM 84.9 °F 43.2 °F 23% 30.24 in 10.0 mi SSW 3.5 mph - N/A   Clear
3:35 PM 85.8 °F 40.5 °F 20% 30.24 in 10.0 mi Calm Calm - N/A   Clear
3:55 PM 85.6 °F 46.8 °F 26% 30.24 in 10.0 mi WNW 12.7 mph - N/A   Clear
4:15 PM 81.7 °F 45.5 °F 28% 30.23 in 10.0 mi WNW 12.7 mph - N/A   Clear
4:35 PM 80.8 °F 43.3 °F 27% 30.23 in 10.0 mi West 9.2 mph - N/A   Clear
4:55 PM 86.0 °F 36.9 °F 17% 30.22 in 10.0 mi WSW 12.7 mph 16.1 mph N/A   Clear
5:15 PM 84.7 °F 39.7 °F 20% 30.21 in 10.0 mi WSW 8.1 mph - N/A   Clear
5:35 PM 84.7 °F 39.2 °F 20% 30.20 in 10.0 mi SSW 5.8 mph - N/A   Clear
5:55 PM 85.3 °F 37.9 °F 19% 30.19 in 10.0 mi SSE 4.6 mph - N/A   Clear
6:15 PM 85.5 °F 38.8 °F 19% 30.18 in 10.0 mi SSE 5.8 mph - N/A   Clear
6:35 PM 85.1 °F 36.9 °F 18% 30.17 in 10.0 mi SSE 5.8 mph - N/A   Clear
6:55 PM 84.6 °F 36.7 °F 18% 30.17 in 10.0 mi South 4.6 mph - N/A   Clear
7:15 PM 84.2 °F 35.8 °F 18% 30.17 in 10.0 mi SSE 4.6 mph - N/A   Clear
7:35 PM 83.7 °F 36.0 °F 18% 30.18 in 10.0 mi Calm Calm - N/A   Clear
7:55 PM 73.6 °F 42.8 °F 33% 30.20 in 7.0 mi ENE 13.8 mph 26.5 mph N/A   Clear
8:15 PM 68.5 °F 46.0 °F 44% 30.22 in 10.0 mi East 17.3 mph 23.0 mph N/A   Clear
8:35 PM 65.1 °F 50.9 °F 60% 30.22 in 10.0 mi ESE 16.1 mph 26.5 mph N/A   Clear
8:55 PM 66.0 °F 49.6 °F 55% 30.25 in 10.0 mi NE 5.8 mph 24.2 mph N/A   Clear
9:15 PM 64.6 °F 49.1 °F 57% 30.27 in 10.0 mi North 9.2 mph - N/A   Clear
9:35 PM 63.1 °F 49.1 °F 60% 30.26 in 10.0 mi WNW 4.6 mph - N/A   Clear
9:55 PM 62.6 °F 48.2 °F 59% 30.25 in 10.0 mi West 5.8 mph - N/A   Clear
10:15 PM 63.0 °F 48.2 °F 59% 30.24 in 10.0 mi Calm Calm - N/A   Clear
10:35 PM 62.6 °F 47.8 °F 58% 30.23 in 10.0 mi Calm Calm - N/A   Clear
10:55 PM 60.8 °F 48.2 °F 63% 30.22 in 10.0 mi Calm Calm - N/A   Clear
11:15 PM 59.7 °F 48.6 °F 67% 30.22 in 10.0 mi Calm Calm - N/A   Clear
11:35 PM 58.6 °F 49.1 °F 71% 30.22 in 10.0 mi SSW 3.5 mph - N/A   Clear
11:55 PM 58.1 °F 50.0 °F 74% 30.21 in 10.0 mi SW 4.6 mph - N/A   Clear